Time;durP1;ratioP1;P1;durP2;ratioP2;P2;SDS_P1;SDS_P2;PMS_P1;PMS_P2;Temp;Humidity;BMP_temperature;BMP_pressure;BME280_temperature;BME280_humidity;BME280_pressure;Samples;Min_cycle;Max_cycle;Signal;HPM_P1;HPM_P2
2021/06/05 00:02:16;;;;;;;13.00;12.10;;;;;;;;;;5060616;28;20414;-77
2021/06/05 00:04:42;;;;;;;11.07;9.97;;;;;;;;;;5051406;28;20419;-76
2021/06/05 00:07:08;;;;;;;12.47;11.33;;;;;;;;;;5050932;28;20441;-76
2021/06/05 00:09:34;;;;;;;13.17;12.00;;;;;;;;;;5055413;28;20450;-74
2021/06/05 00:12:00;;;;;;;13.63;12.63;;;;;;;;;;5062292;28;20443;-77
2021/06/05 00:14:26;;;;;;;13.27;11.93;;;;;;;;;;5053807;28;20753;-79
2021/06/05 00:16:52;;;;;;;12.40;11.43;;;;;;;;;;5051471;28;20470;-75
2021/06/05 00:19:19;;;;;;;13.20;12.30;;;;;;;;;;5051224;28;20412;-77
2021/06/05 00:21:46;;;;;;;14.27;12.97;;;;;;;;;;5051518;28;20504;-74
2021/06/05 00:24:12;;;;;;;14.10;13.00;;;;;;;;;;5050169;28;20454;-78
2021/06/05 00:26:38;;;;;;;14.50;13.40;;;;;;;;;;5051566;28;20451;-73
2021/06/05 00:29:04;;;;;;;13.43;12.33;;;;;;;;;;5065172;28;20422;-79
2021/06/05 00:31:31;;;;;;;14.00;12.80;;;;;;;;;;5071493;28;20512;-76
2021/06/05 00:33:57;;;;;;;13.03;12.03;;;;;;;;;;5071173;28;20414;-76
2021/06/05 00:36:23;;;;;;;14.17;13.07;;;;;;;;;;5071289;28;20473;-77
2021/06/05 00:38:49;;;;;;;13.77;12.77;;;;;;;;;;5070964;28;20476;-78
2021/06/05 00:41:17;;;;;;;14.67;13.40;;;;;;;;;;5071304;28;20438;-77
2021/06/05 00:43:44;;;;;;;14.70;13.53;;;;;;;;;;5057713;28;20983;-75
2021/06/05 00:46:11;;;;;;;14.30;13.30;;;;;;;;;;5059119;28;20424;-73
2021/06/05 00:48:37;;;;;;;14.80;13.60;;;;;;;;;;5059798;28;20417;-76
2021/06/05 00:51:04;;;;;;;13.37;12.27;;;;;;;;;;5068699;28;20440;-75
2021/06/05 00:53:30;;;;;;;13.50;12.60;;;;;;;;;;5054322;28;20440;-74
2021/06/05 00:55:58;;;;;;;14.67;13.47;;;;;;;;;;5067831;28;20462;-76
2021/06/05 00:58:24;;;;;;;14.20;13.00;;;;;;;;;;5061444;28;20442;-75
2021/06/05 01:00:55;;;;;;;14.17;12.87;;;;;;;;;;5054517;28;20989;-75
2021/06/05 01:03:21;;;;;;;14.03;12.87;;;;;;;;;;5054521;28;20723;-77
2021/06/05 01:05:50;;;;;;;14.07;12.97;;;;;;;;;;5054390;28;20781;-76
2021/06/05 01:08:30;;;;;;;13.80;12.70;;;;;;;;;;5054123;28;20802;-77
2021/06/05 01:11:01;;;;;;;13.10;12.10;;;;;;;;;;5063039;28;20429;-75
2021/06/05 01:13:32;;;;;;;13.77;12.47;;;;;;;;;;5060589;28;20836;-77
2021/06/05 01:15:59;;;;;;;12.90;11.90;;;;;;;;;;5054324;28;20559;-77
2021/06/05 01:18:31;;;;;;;13.50;12.30;;;;;;;;;;5054003;28;20419;-76
2021/06/05 01:21:00;;;;;;;13.00;12.10;;;;;;;;;;5054192;28;20455;-77
2021/06/05 01:23:33;;;;;;;13.60;12.60;;;;;;;;;;5053713;28;20412;-74
2021/06/05 01:26:07;;;;;;;12.60;11.50;;;;;;;;;;5054281;28;20418;-74
2021/06/05 01:28:49;;;;;;;14.40;12.43;;;;;;;;;;5057644;28;20462;-76
2021/06/05 01:31:19;;;;;;;14.40;11.90;;;;;;;;;;5074116;28;20442;-77
2021/06/05 01:33:46;;;;;;;13.30;12.30;;;;;;;;;;5073638;28;20935;-77
2021/06/05 01:36:12;;;;;;;13.97;12.87;;;;;;;;;;5056843;28;20451;-75
2021/06/05 01:38:42;;;;;;;13.30;12.03;;;;;;;;;;5053518;28;20900;-76
2021/06/05 01:41:09;;;;;;;13.90;12.73;;;;;;;;;;5053565;28;20920;-72
2021/06/05 01:43:35;;;;;;;12.00;11.20;;;;;;;;;;5053486;28;20414;-75
2021/06/05 01:46:02;;;;;;;13.90;12.80;;;;;;;;;;5053816;28;20439;-73
2021/06/05 01:48:28;;;;;;;13.67;12.57;;;;;;;;;;5052099;28;20994;-75
2021/06/05 01:50:54;;;;;;;13.57;12.50;;;;;;;;;;5059283;28;20447;-76
2021/06/05 01:53:31;;;;;;;13.30;12.30;;;;;;;;;;5064708;28;20414;-76
2021/06/05 01:56:06;;;;;;;12.93;12.03;;;;;;;;;;5053783;28;20458;-73
2021/06/05 01:58:33;;;;;;;13.87;12.80;;;;;;;;;;5066746;28;20414;-73
2021/06/05 02:01:00;;;;;;;13.37;12.37;;;;;;;;;;5053154;28;20430;-75
2021/06/05 02:03:26;;;;;;;13.97;12.83;;;;;;;;;;5053606;28;20412;-75
2021/06/05 02:05:53;;;;;;;13.30;12.40;;;;;;;;;;5065447;28;20451;-77
2021/06/05 02:08:21;;;;;;;13.93;12.93;;;;;;;;;;5053000;28;20423;-74
2021/06/05 02:10:47;;;;;;;14.87;13.77;;;;;;;;;;5063506;28;20438;-76
2021/06/05 02:13:18;;;;;;;13.43;12.43;;;;;;;;;;5058124;28;20422;-75
2021/06/05 02:15:50;;;;;;;13.80;12.80;;;;;;;;;;5053075;28;20453;-77
2021/06/05 02:18:18;;;;;;;14.50;13.37;;;;;;;;;;5066316;28;20419;-75
2021/06/05 02:20:50;;;;;;;14.13;13.03;;;;;;;;;;5052848;28;20431;-72
2021/06/05 02:23:18;;;;;;;13.33;12.43;;;;;;;;;;5066289;28;20476;-77
2021/06/05 02:25:44;;;;;;;13.40;12.40;;;;;;;;;;5053024;28;20410;-74
2021/06/05 02:28:10;;;;;;;14.10;13.10;;;;;;;;;;5054985;28;20498;-76
2021/06/05 02:30:36;;;;;;;14.50;13.40;;;;;;;;;;5077386;28;20449;-76
2021/06/05 02:33:05;;;;;;;13.20;12.30;;;;;;;;;;5079614;28;20411;-73
2021/06/05 02:35:36;;;;;;;14.27;12.90;;;;;;;;;;5079678;28;20449;-75
2021/06/05 02:38:03;;;;;;;13.30;12.40;;;;;;;;;;5079840;28;20499;-77
2021/06/05 02:40:32;;;;;;;14.90;13.70;;;;;;;;;;5079542;28;20524;-77
2021/06/05 02:43:01;;;;;;;13.90;12.90;;;;;;;;;;5059562;28;20481;-78
2021/06/05 02:45:31;;;;;;;14.37;13.20;;;;;;;;;;5059879;28;20416;-77
2021/06/05 02:47:59;;;;;;;14.10;13.00;;;;;;;;;;5058998;28;20497;-75
2021/06/05 02:50:30;;;;;;;13.90;12.80;;;;;;;;;;5073219;28;20441;-75
2021/06/05 02:52:56;;;;;;;13.73;12.60;;;;;;;;;;5065638;28;20418;-74
2021/06/05 02:55:22;;;;;;;13.73;12.63;;;;;;;;;;5066835;28;20824;-75
2021/06/05 02:57:49;;;;;;;13.63;12.50;;;;;;;;;;5058789;28;20414;-75
2021/06/05 03:00:27;;;;;;;14.20;13.10;;;;;;;;;;5072174;28;20893;-76
2021/06/05 03:02:53;;;;;;;14.33;13.23;;;;;;;;;;5071929;28;20422;-77
2021/06/05 03:05:19;;;;;;;14.20;12.80;;;;;;;;;;5059554;28;20406;-79
2021/06/05 03:07:45;;;;;;;14.30;13.30;;;;;;;;;;5059423;28;20454;-77
2021/06/05 03:10:12;;;;;;;15.00;13.80;;;;;;;;;;5059053;28;20453;-76
2021/06/05 03:12:38;;;;;;;15.37;14.07;;;;;;;;;;5059326;28;20986;-74
2021/06/05 03:15:05;;;;;;;14.43;13.33;;;;;;;;;;5059150;28;20411;-74
2021/06/05 03:17:32;;;;;;;14.30;13.00;;;;;;;;;;5075347;28;20417;-80
2021/06/05 03:19:58;;;;;;;14.87;13.73;;;;;;;;;;5084016;28;20429;-77
2021/06/05 03:22:24;;;;;;;14.03;13.00;;;;;;;;;;5079072;28;20422;-79
2021/06/05 03:24:51;;;;;;;14.37;13.30;;;;;;;;;;5064049;28;20477;-75
2021/06/05 03:27:18;;;;;;;13.67;12.53;;;;;;;;;;5059088;28;20403;-77
2021/06/05 03:29:44;;;;;;;14.80;13.60;;;;;;;;;;5074066;28;20401;-78
2021/06/05 03:32:10;;;;;;;14.47;13.13;;;;;;;;;;5078916;28;20429;-75
2021/06/05 03:34:36;;;;;;;15.50;14.30;;;;;;;;;;5065040;28;20407;-78
2021/06/05 03:37:02;;;;;;;16.10;14.50;;;;;;;;;;5070180;28;20465;-78
2021/06/05 03:39:28;;;;;;;15.23;13.83;;;;;;;;;;5058566;28;20422;-75
2021/06/05 03:41:54;;;;;;;14.40;13.07;;;;;;;;;;5054708;28;20480;-75
2021/06/05 03:44:20;;;;;;;14.03;12.77;;;;;;;;;;5055985;28;20905;-75
2021/06/05 03:46:47;;;;;;;15.67;14.37;;;;;;;;;;5055906;28;20415;-76
2021/06/05 03:49:13;;;;;;;15.77;14.40;;;;;;;;;;5057711;28;20461;-75
2021/06/05 03:51:39;;;;;;;12.90;11.87;;;;;;;;;;5075799;28;20467;-78
2021/06/05 03:54:06;;;;;;;16.37;14.97;;;;;;;;;;5055568;28;20420;-75
2021/06/05 03:56:33;;;;;;;12.60;11.50;;;;;;;;;;5055892;28;20947;-78
2021/06/05 03:58:59;;;;;;;12.50;11.43;;;;;;;;;;5069022;28;20406;-77
2021/06/05 04:01:26;;;;;;;13.00;11.90;;;;;;;;;;5055910;28;20469;-76
2021/06/05 04:03:52;;;;;;;13.20;12.23;;;;;;;;;;5055250;28;20772;-77
2021/06/05 04:06:20;;;;;;;12.20;11.20;;;;;;;;;;5055181;28;20467;-76
2021/06/05 04:08:46;;;;;;;14.00;12.80;;;;;;;;;;5071322;28;20414;-79
2021/06/05 04:11:12;;;;;;;12.37;11.27;;;;;;;;;;5057860;28;20938;-77
2021/06/05 04:13:39;;;;;;;12.83;11.73;;;;;;;;;;5058897;28;20415;-76
2021/06/05 04:16:05;;;;;;;12.00;11.07;;;;;;;;;;5056183;28;20462;-77
2021/06/05 04:18:33;;;;;;;13.57;11.50;;;;;;;;;;5055157;28;20420;-76
2021/06/05 04:21:00;;;;;;;13.20;12.30;;;;;;;;;;5055198;28;20432;-80
2021/06/05 04:23:26;;;;;;;12.20;11.20;;;;;;;;;;5055011;28;20430;-78
2021/06/05 04:25:52;;;;;;;13.20;12.10;;;;;;;;;;5055323;28;20441;-74
2021/06/05 04:28:20;;;;;;;11.67;10.87;;;;;;;;;;5058874;28;20415;-78
2021/06/05 04:30:46;;;;;;;12.70;11.80;;;;;;;;;;5074610;28;20434;-75
2021/06/05 04:33:13;;;;;;;13.00;12.10;;;;;;;;;;5075010;28;20415;-76
2021/06/05 04:35:40;;;;;;;12.90;11.87;;;;;;;;;;5064238;28;20455;-80
2021/06/05 04:38:07;;;;;;;12.67;11.53;;;;;;;;;;5053961;28;20458;-75
2021/06/05 04:40:33;;;;;;;12.70;11.70;;;;;;;;;;5060720;28;20462;-75
2021/06/05 04:42:59;;;;;;;12.17;11.30;;;;;;;;;;5051002;28;20411;-77
2021/06/05 04:45:25;;;;;;;12.53;11.53;;;;;;;;;;5051200;28;20422;-77
2021/06/05 04:47:51;;;;;;;12.83;11.93;;;;;;;;;;5051947;28;20439;-76
2021/06/05 04:50:19;;;;;;;11.20;10.40;;;;;;;;;;5061100;28;20437;-74
2021/06/05 04:52:46;;;;;;;13.13;12.00;;;;;;;;;;5070233;28;20768;-74
2021/06/05 04:55:12;;;;;;;12.30;11.40;;;;;;;;;;5070669;28;20427;-76
2021/06/05 04:57:38;;;;;;;13.90;12.90;;;;;;;;;;5057643;28;20415;-78
2021/06/05 05:00:06;;;;;;;12.70;11.70;;;;;;;;;;5050674;28;20443;-75
2021/06/05 05:02:32;;;;;;;13.07;11.87;;;;;;;;;;5050476;28;20447;-75
2021/06/05 05:04:58;;;;;;;12.53;11.43;;;;;;;;;;5050368;28;20413;-74
2021/06/05 05:07:24;;;;;;;13.03;11.83;;;;;;;;;;5050582;28;20439;-77
2021/06/05 05:09:50;;;;;;;12.87;11.80;;;;;;;;;;5050334;28;20418;-75
2021/06/05 05:12:16;;;;;;;12.87;11.67;;;;;;;;;;5057418;28;20416;-73
2021/06/05 05:14:42;;;;;;;13.77;12.77;;;;;;;;;;5050193;28;20496;-75
2021/06/05 05:17:08;;;;;;;13.73;12.60;;;;;;;;;;5050297;28;21265;-75
2021/06/05 05:19:34;;;;;;;13.40;12.37;;;;;;;;;;5050141;28;20465;-75
2021/06/05 05:22:00;;;;;;;13.53;12.23;;;;;;;;;;5050175;28;20443;-75
2021/06/05 05:24:27;;;;;;;13.43;12.43;;;;;;;;;;5049890;28;20411;-77
2021/06/05 05:26:53;;;;;;;13.00;12.10;;;;;;;;;;5050036;28;20420;-77
2021/06/05 05:29:19;;;;;;;13.20;12.20;;;;;;;;;;5063025;28;20970;-72
2021/06/05 05:31:45;;;;;;;13.60;12.60;;;;;;;;;;5070046;28;20513;-76
2021/06/05 05:34:11;;;;;;;14.07;12.90;;;;;;;;;;5070173;28;20522;-78
2021/06/05 05:36:38;;;;;;;12.93;11.93;;;;;;;;;;5069799;28;20896;-78
2021/06/05 05:39:16;;;;;;;12.10;11.20;;;;;;;;;;5070032;28;20419;-73
2021/06/05 05:41:43;;;;;;;13.60;12.60;;;;;;;;;;5069917;28;20939;-74
2021/06/05 05:44:09;;;;;;;13.23;12.33;;;;;;;;;;5069900;28;20419;-73
2021/06/05 05:46:36;;;;;;;12.53;11.63;;;;;;;;;;5069723;28;20418;-77
2021/06/05 05:49:03;;;;;;;13.30;12.10;;;;;;;;;;5069771;28;20516;-78
2021/06/05 05:51:29;;;;;;;15.83;14.23;;;;;;;;;;5069792;28;20434;-76
2021/06/05 05:53:55;;;;;;;15.00;13.60;;;;;;;;;;5069638;28;20490;-76
2021/06/05 05:56:23;;;;;;;15.07;13.47;;;;;;;;;;5069738;28;20472;-76
2021/06/05 05:58:51;;;;;;;14.80;13.43;;;;;;;;;;5069514;28;20425;-76
2021/06/05 06:01:20;;;;;;;12.90;11.90;;;;;;;;;;5069540;28;20466;-75
2021/06/05 06:03:46;;;;;;;14.70;13.50;;;;;;;;;;5068687;28;20418;-75
2021/06/05 06:06:12;;;;;;;14.87;13.60;;;;;;;;;;5069382;28;20479;-75
2021/06/05 06:08:39;;;;;;;14.33;13.10;;;;;;;;;;5069147;28;20414;-77
2021/06/05 06:11:05;;;;;;;13.70;12.60;;;;;;;;;;5069200;28;20813;-75
2021/06/05 06:13:31;;;;;;;13.27;12.27;;;;;;;;;;5065852;28;20458;-77
2021/06/05 06:15:57;;;;;;;12.87;11.87;;;;;;;;;;5049657;28;20853;-75
2021/06/05 06:18:24;;;;;;;13.40;12.37;;;;;;;;;;5049039;28;20412;-70
2021/06/05 06:20:54;;;;;;;12.70;11.63;;;;;;;;;;5049125;28;20869;-77
2021/06/05 06:23:23;;;;;;;13.73;12.53;;;;;;;;;;5048940;28;20509;-75
2021/06/05 06:25:50;;;;;;;12.20;11.30;;;;;;;;;;5049421;28;20826;-73
2021/06/05 06:28:18;;;;;;;11.87;10.97;;;;;;;;;;5053030;28;20497;-73
2021/06/05 06:30:48;;;;;;;13.50;12.50;;;;;;;;;;5068192;28;20791;-72
2021/06/05 06:33:14;;;;;;;12.07;11.13;;;;;;;;;;5069062;28;20426;-75
2021/06/05 06:35:41;;;;;;;11.20;10.30;;;;;;;;;;5069050;28;20468;-74
2021/06/05 06:38:10;;;;;;;12.10;11.20;;;;;;;;;;5064900;28;20478;-75
2021/06/05 06:40:36;;;;;;;11.83;10.93;;;;;;;;;;5047732;28;20809;-76
2021/06/05 06:43:05;;;;;;;11.27;10.20;;;;;;;;;;5048984;28;20450;-74
2021/06/05 06:45:31;;;;;;;11.37;10.37;;;;;;;;;;5049417;28;20451;-76
2021/06/05 06:47:58;;;;;;;10.70;9.90;;;;;;;;;;5048992;28;20526;-73
2021/06/05 06:50:25;;;;;;;11.20;10.30;;;;;;;;;;5060778;28;20769;-74
2021/06/05 06:52:51;;;;;;;11.10;10.10;;;;;;;;;;5063843;28;20822;-73
2021/06/05 06:55:18;;;;;;;11.30;10.50;;;;;;;;;;5049030;28;20458;-75
2021/06/05 06:57:44;;;;;;;9.47;8.87;;;;;;;;;;5049011;28;20951;-76
2021/06/05 07:00:13;;;;;;;10.50;9.60;;;;;;;;;;5049372;28;20825;-73
2021/06/05 07:02:39;;;;;;;10.40;9.60;;;;;;;;;;5048931;28;20896;-75
2021/06/05 07:05:06;;;;;;;9.80;9.17;;;;;;;;;;5049245;28;20545;-74
2021/06/05 07:07:32;;;;;;;9.97;9.23;;;;;;;;;;5049173;28;20513;-74
2021/06/05 07:09:58;;;;;;;10.80;10.00;;;;;;;;;;5048889;28;20455;-76
2021/06/05 07:12:24;;;;;;;10.83;9.60;;;;;;;;;;5054814;28;20930;-75
2021/06/05 07:14:50;;;;;;;10.63;9.83;;;;;;;;;;5049245;28;20427;-73
2021/06/05 07:17:19;;;;;;;9.67;8.93;;;;;;;;;;5052821;28;20471;-75
2021/06/05 07:19:45;;;;;;;10.10;9.40;;;;;;;;;;5052860;28;20414;-76
2021/06/05 07:22:12;;;;;;;9.80;9.00;;;;;;;;;;5052619;28;20991;-74
2021/06/05 07:24:38;;;;;;;9.50;8.80;;;;;;;;;;5052422;28;20411;-73
2021/06/05 07:27:04;;;;;;;9.53;8.83;;;;;;;;;;5052509;28;20796;-76
2021/06/05 07:29:30;;;;;;;9.90;9.10;;;;;;;;;;5065938;28;20477;-72
2021/06/05 07:31:56;;;;;;;9.60;8.90;;;;;;;;;;5072214;28;20442;-73
2021/06/05 07:34:23;;;;;;;10.60;9.80;;;;;;;;;;5072044;28;20422;-74
2021/06/05 07:37:03;;;;;;;9.70;9.00;;;;;;;;;;5071866;28;20955;-74
2021/06/05 07:39:29;;;;;;;9.57;8.77;;;;;;;;;;5072223;28;20417;-74
2021/06/05 07:41:59;;;;;;;9.13;8.20;;;;;;;;;;5072204;28;21015;-75
2021/06/05 07:44:25;;;;;;;8.43;7.83;;;;;;;;;;5072162;28;20468;-74
2021/06/05 07:46:56;;;;;;;8.93;8.23;;;;;;;;;;5071993;28;20426;-74
2021/06/05 07:49:23;;;;;;;8.20;7.50;;;;;;;;;;5071643;28;20430;-77
2021/06/05 07:51:49;;;;;;;8.67;7.87;;;;;;;;;;5072184;28;20433;-74
2021/06/05 07:54:15;;;;;;;8.60;7.90;;;;;;;;;;5071986;28;20463;-74
2021/06/05 07:56:42;;;;;;;7.57;7.07;;;;;;;;;;5072080;28;20466;-74
2021/06/05 07:59:08;;;;;;;9.20;8.30;;;;;;;;;;5071805;28;20415;-75
2021/06/05 08:01:34;;;;;;;8.00;7.40;;;;;;;;;;5072161;28;20811;-75
2021/06/05 08:04:00;;;;;;;7.33;6.80;;;;;;;;;;5071375;28;20422;-74
2021/06/05 08:06:26;;;;;;;7.43;6.93;;;;;;;;;;5071676;28;20446;-75
2021/06/05 08:08:52;;;;;;;7.13;6.63;;;;;;;;;;5071461;28;20468;-74
2021/06/05 08:11:18;;;;;;;7.20;6.67;;;;;;;;;;5071736;28;20465;-73
2021/06/05 08:13:44;;;;;;;6.80;6.20;;;;;;;;;;5054134;28;20477;-75
2021/06/05 08:16:10;;;;;;;6.83;6.27;;;;;;;;;;5051884;28;20495;-75
2021/06/05 08:18:37;;;;;;;7.03;6.43;;;;;;;;;;5051471;28;20498;-74
2021/06/05 08:21:05;;;;;;;7.13;6.63;;;;;;;;;;5052022;28;20914;-75
2021/06/05 08:23:33;;;;;;;6.73;6.13;;;;;;;;;;5051523;28;20823;-73
2021/06/05 08:25:59;;;;;;;6.90;6.30;;;;;;;;;;5051589;28;20451;-76
2021/06/05 08:28:25;;;;;;;6.87;6.47;;;;;;;;;;5054219;28;20824;-75
2021/06/05 08:30:53;;;;;;;7.00;6.40;;;;;;;;;;5071152;28;20447;-75
2021/06/05 08:33:19;;;;;;;6.43;6.00;;;;;;;;;;5071041;28;20414;-76
2021/06/05 08:35:45;;;;;;;7.07;6.60;;;;;;;;;;5071163;28;20468;-73
2021/06/05 08:38:13;;;;;;;7.17;6.53;;;;;;;;;;5070901;28;20436;-74
2021/06/05 08:40:42;;;;;;;7.83;6.07;;;;;;;;;;5071231;28;20535;-73
2021/06/05 08:43:09;;;;;;;7.37;6.03;;;;;;;;;;5070773;28;20411;-74
2021/06/05 08:45:35;;;;;;;12.77;6.50;;;;;;;;;;5071023;28;20467;-75
2021/06/05 08:48:03;;;;;;;7.03;6.40;;;;;;;;;;5070736;28;20414;-73
2021/06/05 08:50:30;;;;;;;6.73;6.33;;;;;;;;;;5071021;28;20435;-74
2021/06/05 08:53:15;;;;;;;7.10;6.60;;;;;;;;;;5055862;28;20518;-76
2021/06/05 08:55:52;;;;;;;7.30;6.63;;;;;;;;;;5070736;28;20458;-73
2021/06/05 08:58:32;;;;;;;6.47;5.90;;;;;;;;;;5070697;28;20476;-72
2021/06/05 09:01:06;;;;;;;6.60;6.20;;;;;;;;;;5070348;28;20437;-74
2021/06/05 09:03:34;;;;;;;7.50;6.90;;;;;;;;;;5070420;28;20422;-77
2021/06/05 09:06:20;;;;;;;7.07;6.50;;;;;;;;;;5070613;28;20923;-74
2021/06/05 09:08:46;;;;;;;6.50;6.10;;;;;;;;;;5070218;28;20425;-73
2021/06/05 09:11:13;;;;;;;6.47;6.07;;;;;;;;;;5070356;28;20462;-76
2021/06/05 09:13:39;;;;;;;6.60;6.20;;;;;;;;;;5054056;28;20415;-74
2021/06/05 09:16:22;;;;;;;7.00;6.50;;;;;;;;;;5050455;28;20458;-73
2021/06/05 09:19:02;;;;;;;7.20;6.50;;;;;;;;;;5050128;28;20415;-72
2021/06/05 09:21:32;;;;;;;7.40;6.70;;;;;;;;;;5050428;28;20441;-74
2021/06/05 09:24:12;;;;;;;7.17;6.73;;;;;;;;;;5050101;28;20404;-71
2021/06/05 09:26:38;;;;;;;7.27;6.77;;;;;;;;;;5050151;28;20453;-72
2021/06/05 09:29:13;;;;;;;7.30;6.80;;;;;;;;;;5059986;28;20760;-73
2021/06/05 09:31:52;;;;;;;7.30;6.80;;;;;;;;;;5069961;28;20477;-74
2021/06/05 09:34:18;;;;;;;8.57;7.67;;;;;;;;;;5069707;28;20422;-75
2021/06/05 09:36:44;;;;;;;6.30;5.90;;;;;;;;;;5069783;28;20989;-74
2021/06/05 09:39:12;;;;;;;7.23;6.63;;;;;;;;;;5068577;28;20441;-73
2021/06/05 09:41:40;;;;;;;7.00;6.60;;;;;;;;;;5069790;28;20431;-74
2021/06/05 09:44:15;;;;;;;7.30;6.60;;;;;;;;;;5069609;28;21005;-74
2021/06/05 09:47:01;;;;;;;7.40;6.80;;;;;;;;;;5069954;28;20414;-74
2021/06/05 09:49:30;;;;;;;6.77;6.30;;;;;;;;;;5069408;28;20424;-72
2021/06/05 09:52:05;;;;;;;6.70;6.20;;;;;;;;;;5069910;28;20803;-77
2021/06/05 09:54:45;;;;;;;7.17;6.67;;;;;;;;;;5069760;28;20442;-77
2021/06/05 09:57:26;;;;;;;6.53;6.13;;;;;;;;;;5069651;28;20466;-77
2021/06/05 10:00:08;;;;;;;6.57;6.07;;;;;;;;;;5070172;28;20415;-75
2021/06/05 10:02:34;;;;;;;6.23;5.83;;;;;;;;;;5049456;28;20496;-72
2021/06/05 10:05:09;;;;;;;6.13;5.73;;;;;;;;;;5049085;28;20447;-73
2021/06/05 10:07:35;;;;;;;6.20;5.80;;;;;;;;;;5049209;28;20860;-74
2021/06/05 10:10:04;;;;;;;6.07;5.77;;;;;;;;;;5049322;28;20415;-77
2021/06/05 10:12:33;;;;;;;5.73;5.33;;;;;;;;;;5056155;28;20415;-78
2021/06/05 10:15:05;;;;;;;6.17;5.67;;;;;;;;;;5049113;28;20477;-77
2021/06/05 10:17:37;;;;;;;6.00;5.50;;;;;;;;;;5049356;28;20455;-76
2021/06/05 10:20:06;;;;;;;5.73;5.33;;;;;;;;;;5049386;28;20437;-78
2021/06/05 10:22:33;;;;;;;6.00;5.70;;;;;;;;;;5049580;28;20412;-81
2021/06/05 10:25:18;;;;;;;6.37;5.97;;;;;;;;;;5049266;28;20954;-81
2021/06/05 10:27:46;;;;;;;5.30;4.90;;;;;;;;;;5051975;28;20403;-78
2021/06/05 10:30:33;;;;;;;5.13;4.83;;;;;;;;;;5060106;28;20439;-74
2021/06/05 10:32:59;;;;;;;5.20;4.90;;;;;;;;;;5052660;28;20413;-77
2021/06/05 10:35:30;;;;;;;5.03;4.73;;;;;;;;;;5061907;28;20408;-77
2021/06/05 10:38:05;;;;;;;4.90;4.50;;;;;;;;;;5051848;28;20453;-74
2021/06/05 10:40:31;;;;;;;5.50;5.10;;;;;;;;;;5049318;28;20438;-76
2021/06/05 10:42:57;;;;;;;5.20;4.90;;;;;;;;;;5047504;28;20430;-76
2021/06/05 10:45:28;;;;;;;5.20;4.90;;;;;;;;;;5049134;28;20423;-78
2021/06/05 10:48:07;;;;;;;5.43;5.13;;;;;;;;;;5048935;28;20423;-80
2021/06/05 10:50:41;;;;;;;5.50;5.10;;;;;;;;;;5076528;28;20433;-79
2021/06/05 10:53:07;;;;;;;5.63;5.27;;;;;;;;;;5052901;28;20476;-76
2021/06/05 10:55:44;;;;;;;5.33;5.03;;;;;;;;;;5053840;28;20407;-79
2021/06/05 10:58:13;;;;;;;5.40;5.00;;;;;;;;;;5052783;28;20450;-76
2021/06/05 11:00:42;;;;;;;7.70;7.20;;;;;;;;;;5052684;28;20893;-79
2021/06/05 11:03:31;;;;;;;7.90;7.30;;;;;;;;;;5052667;28;20411;-77
2021/06/05 11:06:09;;;;;;;7.33;6.73;;;;;;;;;;5043456;28;20466;-78
2021/06/05 11:08:43;;;;;;;5.90;5.50;;;;;;;;;;5050974;28;20434;-78
2021/06/05 11:11:09;;;;;;;5.50;5.20;;;;;;;;;;5054409;28;20443;-77
2021/06/05 11:13:35;;;;;;;5.87;5.47;;;;;;;;;;5056265;28;20422;-78
2021/06/05 11:16:03;;;;;;;5.30;4.90;;;;;;;;;;5052522;28;20470;-77
2021/06/05 11:18:33;;;;;;;5.83;5.33;;;;;;;;;;5052404;28;20419;-76
2021/06/05 11:21:18;;;;;;;5.40;5.00;;;;;;;;;;5052325;28;20461;-76
2021/06/05 11:24:04;;;;;;;5.03;4.73;;;;;;;;;;5052449;28;20407;-75
2021/06/05 11:26:39;;;;;;;5.30;4.87;;;;;;;;;;5052409;28;20422;-77
2021/06/05 11:29:20;;;;;;;5.90;5.40;;;;;;;;;;5062206;28;20496;-80
2021/06/05 11:31:46;;;;;;;4.73;4.30;;;;;;;;;;5072350;28;20511;-76
2021/06/05 11:34:30;;;;;;;7.00;5.20;;;;;;;;;;5072559;28;20418;-82
2021/06/05 11:36:59;;;;;;;5.40;5.10;;;;;;;;;;5072813;28;20492;-73
2021/06/05 11:39:25;;;;;;;5.20;4.90;;;;;;;;;;5072130;28;20418;-78
2021/06/05 11:41:53;;;;;;;4.90;4.50;;;;;;;;;;5072327;28;20427;-75
2021/06/05 11:44:19;;;;;;;5.00;4.70;;;;;;;;;;5072069;28;20414;-76
2021/06/05 11:46:46;;;;;;;6.20;5.57;;;;;;;;;;5072099;28;20456;-77
2021/06/05 11:49:32;;;;;;;5.00;4.70;;;;;;;;;;5063716;28;20473;-74
2021/06/05 11:52:18;;;;;;;5.17;4.87;;;;;;;;;;5071646;28;20456;-77
2021/06/05 11:54:44;;;;;;;5.30;5.00;;;;;;;;;;5070272;28;20772;-76
2021/06/05 11:57:18;;;;;;;5.27;4.97;;;;;;;;;;5071457;28;20457;-74
2021/06/05 11:59:45;;;;;;;4.83;4.53;;;;;;;;;;5071963;28;20741;-78
2021/06/05 12:02:11;;;;;;;5.40;4.37;;;;;;;;;;5070862;28;21005;-74
2021/06/05 12:04:41;;;;;;;5.20;4.90;;;;;;;;;;5071868;28;20414;-76
2021/06/05 12:07:26;;;;;;;4.33;4.03;;;;;;;;;;5068979;28;20434;-76
2021/06/05 12:09:59;;;;;;;5.10;4.60;;;;;;;;;;5063375;28;20406;-76
2021/06/05 12:12:27;;;;;;;4.50;4.20;;;;;;;;;;5066371;28;20411;-75
2021/06/05 12:15:00;;;;;;;4.83;4.53;;;;;;;;;;5051774;28;20521;-76
2021/06/05 12:17:29;;;;;;;5.50;4.10;;;;;;;;;;5051595;28;20532;-77
2021/06/05 12:20:14;;;;;;;5.67;5.27;;;;;;;;;;5051839;28;20765;-74
2021/06/05 12:22:41;;;;;;;5.70;5.10;;;;;;;;;;5051639;28;20407;-75
2021/06/05 12:25:08;;;;;;;5.67;5.27;;;;;;;;;;5051480;28;20408;-75
2021/06/05 12:27:37;;;;;;;5.67;5.27;;;;;;;;;;5052916;28;20451;-75
2021/06/05 12:30:23;;;;;;;5.80;5.30;;;;;;;;;;5071691;28;20424;-75
2021/06/05 12:33:04;;;;;;;6.03;5.63;;;;;;;;;;5071107;28;20445;-76
2021/06/05 12:35:34;;;;;;;5.60;5.30;;;;;;;;;;5051245;28;20955;-77
2021/06/05 12:38:01;;;;;;;5.47;5.17;;;;;;;;;;5051164;28;20466;-76
2021/06/05 12:40:46;;;;;;;6.00;5.60;;;;;;;;;;5051268;28;20443;-77
2021/06/05 12:43:16;;;;;;;6.50;6.10;;;;;;;;;;5050664;28;21117;-77
2021/06/05 12:45:42;;;;;;;6.57;6.17;;;;;;;;;;5051128;28;20430;-78
2021/06/05 12:48:10;;;;;;;7.17;6.47;;;;;;;;;;5050691;28;20481;-77
2021/06/05 12:50:41;;;;;;;6.00;5.50;;;;;;;;;;5063041;28;20951;-77
2021/06/05 12:53:15;;;;;;;6.07;5.70;;;;;;;;;;5071009;28;20418;-76
2021/06/05 12:55:43;;;;;;;6.87;6.27;;;;;;;;;;5070675;28;20421;-76
2021/06/05 12:58:10;;;;;;;6.90;6.30;;;;;;;;;;5071151;28;20492;-80
2021/06/05 13:00:38;;;;;;;7.23;6.63;;;;;;;;;;5071198;28;20950;-77
2021/06/05 13:03:08;;;;;;;6.60;6.20;;;;;;;;;;5063012;28;20420;-77
2021/06/05 13:05:36;;;;;;;7.10;6.43;;;;;;;;;;5068103;28;20418;-75
2021/06/05 13:08:17;;;;;;;6.70;6.30;;;;;;;;;;5072278;28;20418;-79
2021/06/05 13:10:48;;;;;;;6.73;6.07;;;;;;;;;;5053787;28;20428;-78
2021/06/05 13:13:14;;;;;;;6.70;6.20;;;;;;;;;;5058467;28;20420;-76
2021/06/05 13:15:45;;;;;;;6.83;6.30;;;;;;;;;;5051445;28;20424;-76
2021/06/05 13:18:12;;;;;;;6.70;6.30;;;;;;;;;;5050577;28;20754;-76
2021/06/05 13:20:42;;;;;;;7.83;7.23;;;;;;;;;;5050675;28;20836;-79
2021/06/05 13:23:11;;;;;;;6.80;6.20;;;;;;;;;;5063537;28;20922;-74
2021/06/05 13:25:38;;;;;;;6.77;6.33;;;;;;;;;;5050743;28;20415;-75
2021/06/05 13:28:04;;;;;;;8.17;7.57;;;;;;;;;;5054467;28;20520;-76
2021/06/05 13:30:38;;;;;;;8.47;7.80;;;;;;;;;;5067568;28;20453;-78
2021/06/05 13:33:06;;;;;;;8.23;7.67;;;;;;;;;;5069648;28;20406;-75
2021/06/05 13:35:44;;;;;;;8.23;7.73;;;;;;;;;;5070098;28;20409;-77
2021/06/05 13:38:20;;;;;;;8.83;8.10;;;;;;;;;;5069704;28;20448;-77
2021/06/05 13:40:46;;;;;;;7.77;7.03;;;;;;;;;;5058408;28;20427;-75
2021/06/05 13:43:13;;;;;;;8.50;7.70;;;;;;;;;;5049753;28;20832;-75
2021/06/05 13:45:39;;;;;;;8.10;7.60;;;;;;;;;;5049828;28;20449;-74
2021/06/05 13:48:06;;;;;;;8.90;8.20;;;;;;;;;;5050088;28;20423;-76
2021/06/05 13:50:33;;;;;;;8.73;7.43;;;;;;;;;;5062519;28;20517;-77
2021/06/05 13:53:31;;;;;;;8.03;6.50;;;;;;;;;;5069627;28;20468;-76
2021/06/05 13:56:00;;;;;;;7.17;6.67;;;;;;;;;;5037391;28;20471;-77
2021/06/05 13:58:26;;;;;;;7.30;6.80;;;;;;;;;;5049912;28;20449;-75
2021/06/05 14:00:53;;;;;;;7.70;7.20;;;;;;;;;;5049718;28;20497;-73
2021/06/05 14:03:20;;;;;;;7.33;6.73;;;;;;;;;;5049563;28;20415;-74
2021/06/05 14:05:46;;;;;;;7.47;7.03;;;;;;;;;;5049640;28;20848;-73
2021/06/05 14:08:13;;;;;;;7.10;6.60;;;;;;;;;;5049579;28;20507;-74
2021/06/05 14:10:40;;;;;;;6.93;6.43;;;;;;;;;;5049572;28;20557;-74
2021/06/05 14:13:07;;;;;;;7.70;7.10;;;;;;;;;;5049643;28;20415;-73
2021/06/05 14:15:34;;;;;;;8.20;7.60;;;;;;;;;;5049614;28;20419;-74
2021/06/05 14:18:00;;;;;;;6.97;6.37;;;;;;;;;;5049695;28;20443;-74
2021/06/05 14:20:29;;;;;;;7.33;6.83;;;;;;;;;;5049776;28;20451;-73
2021/06/05 14:22:55;;;;;;;6.90;6.30;;;;;;;;;;5049811;28;20415;-73
2021/06/05 14:25:22;;;;;;;8.53;7.20;;;;;;;;;;5048679;28;20399;-73
2021/06/05 14:27:48;;;;;;;6.50;6.00;;;;;;;;;;5052948;28;20412;-74
2021/06/05 14:30:21;;;;;;;6.90;6.20;;;;;;;;;;5058580;28;20435;-75
2021/06/05 14:32:47;;;;;;;6.70;6.20;;;;;;;;;;5050817;28;20746;-75
2021/06/05 14:35:13;;;;;;;6.37;5.93;;;;;;;;;;5069695;28;20419;-73
2021/06/05 14:37:39;;;;;;;7.63;7.13;;;;;;;;;;5069617;28;20462;-74
2021/06/05 14:40:07;;;;;;;6.60;6.17;;;;;;;;;;5069271;28;20419;-75
2021/06/05 14:42:33;;;;;;;7.50;6.83;;;;;;;;;;5071114;28;20449;-75